createdAt,value
2023-01-04T00:00:00.000Z,87.88
2023-01-04T00:15:00.000Z,88.06
2023-01-04T00:30:00.000Z,88.16
2023-01-04T00:45:00.000Z,88.08
2023-01-04T01:00:00.000Z,88.29
2023-01-04T01:15:00.000Z,88.44
2023-01-04T01:30:00.000Z,88.54
2023-01-04T01:45:00.000Z,88.41
2023-01-04T02:00:00.000Z,87.99
2023-01-04T02:15:00.000Z,88.02
2023-01-04T02:30:00.000Z,87.92
2023-01-04T02:45:00.000Z,87.98
2023-01-04T03:00:00.000Z,87.68
2023-01-04T03:15:00.000Z,87.48
2023-01-04T03:30:00.000Z,87.27
2023-01-04T03:45:00.000Z,87.14
2023-01-04T04:00:00.000Z,87.02
2023-01-04T04:15:00.000Z,86.84
2023-01-04T04:30:00.000Z,86.79
2023-01-04T04:45:00.000Z,86.72
2023-01-04T05:00:00.000Z,86.6
2023-01-04T05:15:00.000Z,86.63
2023-01-04T05:30:00.000Z,86.72
2023-01-04T05:45:00.000Z,86.56
2023-01-04T06:00:00.000Z,86.42
2023-01-04T06:15:00.000Z,86.31
2023-01-04T06:30:00.000Z,86
2023-01-04T06:45:00.000Z,85.85
2023-01-04T07:00:00.000Z,85.91
2023-01-04T07:15:00.000Z,85.64
2023-01-04T07:30:00.000Z,85.24
2023-01-04T07:45:00.000Z,84.67
2023-01-04T08:00:00.000Z,84.23
2023-01-04T08:15:00.000Z,83.12
2023-01-04T08:30:00.000Z,82.21
2023-01-04T08:45:00.000Z,81.83
2023-01-04T09:00:00.000Z,82.65
2023-01-04T09:15:00.000Z,80.46
2023-01-04T09:30:00.000Z,78.67
2023-01-04T09:45:00.000Z,72.22
2023-01-04T10:00:00.000Z,64.21
2023-01-04T10:15:00.000Z,60.34
2023-01-04T10:30:00.000Z,57.86
2023-01-04T10:45:00.000Z,55.98
2023-01-04T11:00:00.000Z,56.71
2023-01-04T11:15:00.000Z,55.54
2023-01-04T11:30:00.000Z,56.91
2023-01-04T11:45:00.000Z,56.26
2023-01-04T12:00:00.000Z,58.34
2023-01-04T12:15:00.000Z,59.04
2023-01-04T12:30:00.000Z,59.59
2023-01-04T12:45:00.000Z,61.47
2023-01-04T13:00:00.000Z,66.33
2023-01-04T13:15:00.000Z,70.28
2023-01-04T13:30:00.000Z,67.61
2023-01-04T13:45:00.000Z,64.18
2023-01-04T14:00:00.000Z,61.95
2023-01-04T14:15:00.000Z,61.45
2023-01-04T14:30:00.000Z,62.31
2023-01-04T14:45:00.000Z,63.27
2023-01-04T15:00:00.000Z,63.12
2023-01-04T15:15:00.000Z,62.73
2023-01-04T15:30:00.000Z,62.22
2023-01-04T15:45:00.000Z,62.42
2023-01-04T16:00:00.000Z,63.05
2023-01-04T16:15:00.000Z,62.18
2023-01-04T16:30:00.000Z,61.02
2023-01-04T16:45:00.000Z,62.41
2023-01-04T17:15:00.000Z,64.31
2023-01-04T17:30:00.000Z,64.13
2023-01-04T17:45:00.000Z,63.77
2023-01-04T18:00:00.000Z,63.92
2023-01-04T18:15:00.000Z,64.09
2023-01-04T18:30:00.000Z,63.95
2023-01-04T18:45:00.000Z,64.78
2023-01-04T19:00:00.000Z,65.66
2023-01-04T19:15:00.000Z,66.22
2023-01-04T19:30:00.000Z,67.34
2023-01-04T19:45:00.000Z,68.3
2023-01-04T20:00:00.000Z,66.79
2023-01-04T20:15:00.000Z,67.72
2023-01-04T20:30:00.000Z,67.2
2023-01-04T20:45:00.000Z,66.44
2023-01-04T21:00:00.000Z,66.6
2023-01-04T21:15:00.000Z,66.77
2023-01-04T21:30:00.000Z,67.09
2023-01-04T21:45:00.000Z,66.71
2023-01-04T22:00:00.000Z,66.43
2023-01-04T22:15:00.000Z,65.79
2023-01-04T22:30:00.000Z,65.72
2023-01-04T22:45:00.000Z,65.65
2023-01-04T23:00:00.000Z,65.9
2023-01-04T23:15:00.000Z,65.32
2023-01-04T23:30:00.000Z,66.47
2023-01-04T23:45:00.000Z,67.35
